Pagrindinis puslapis
METAR-TAF:

METAR-TAF

Oro uostai :

Banska Bistrica, Slovakija

platuma: 48-38-17N, ilguma: 019-08-03E, Aukštis: 318 m

METAR: trūkstamas

Laikas: 19:22 (18:22 UTC)

Prognozė

Ataskaita buvo paskelbta 1 valandą ir 52 minutes, ne 16:30 UTC
Prognozė galioja nuo 29 metu 18 UTC su 01 metu 06 UTC
Vėjas 2 kt nuo kintamojo kryptimis
Matomumas 10 km arba daugiau
nėra debesų žemiau 1500 m ir nėra kamuolinių lietaus debesų
Tapsmas
nuo 01 metu 01 UTC su 01 metu 03 UTC
Matomumas 10 km arba daugiau
Su prošvaistėmis ne aukštis 3500 ft

TAF: LZSL 291630Z 2918/0106 VRB02KT CAVOK BECMG 0101/0103 9999 BKN035

Orai ataskaitas ir orų prognozės (METAR, TAF).

turimą stotys yra geltonos ir raudonos taškus žemėlapyje.

Perkelti pele per norėdami pamatyti stoties vardą.

Tada spustelėkite, norėdami matyti oro stebėjimo ir prognozės.

Norėdami pakeisti žemėlapį: spustelėkite ant žalios mygtukų su juodo kryžiaus žemyn,; žalią mygtuką su brūkšneliu, jei norite nutolinti; arba žalių rodyklių gretimoms žemėlapius.


METAR-TAF: